Time;durP1;ratioP1;P1;durP2;ratioP2;P2;SDS_P1;SDS_P2;PMS_P1;PMS_P2;Temp;Humidity;BMP_temperature;BMP_pressure;BME280_temperature;BME280_humidity;BME280_pressure;Samples;Min_cycle;Max_cycle;Signal;HPM_P1;HPM_P2
2023/12/31 00:02:04;;;;;;;9.68;5.30;;;8.20;95.30;;;;;;5117622;27;20043;-78
2023/12/31 00:04:30;;;;;;;7.40;5.75;;;8.20;95.20;;;;;;5100279;27;20091;-78
2023/12/31 00:06:56;;;;;;;9.57;5.40;;;8.30;95.50;;;;;;5134433;27;20043;-78
2023/12/31 00:09:21;;;;;;;7.68;5.07;;;8.30;95.40;;;;;;5134326;27;20042;-78
2023/12/31 00:11:47;;;;;;;6.78;4.90;;;8.30;95.40;;;;;;5133982;27;20035;-78
2023/12/31 00:14:13;;;;;;;12.55;5.80;;;8.30;95.10;;;;;;5117208;27;20039;-78
2023/12/31 00:16:39;;;;;;;7.13;4.57;;;8.30;95.40;;;;;;5117188;27;20039;-77
2023/12/31 00:19:04;;;;;;;6.80;4.13;;;8.40;95.20;;;;;;5117193;27;20525;-78
2023/12/31 00:21:30;;;;;;;6.10;4.13;;;8.40;95.30;;;;;;5116994;27;20039;-77
2023/12/31 00:23:56;;;;;;;8.02;4.15;;;8.40;95.20;;;;;;5133937;27;20510;-79
2023/12/31 00:26:21;;;;;;;7.00;4.72;;;8.50;95.20;;;;;;5117080;27;20046;-78
2023/12/31 00:28:47;;;;;;;7.15;4.82;;;8.40;95.30;;;;;;5116987;27;20039;-78
2023/12/31 00:31:13;;;;;;;7.70;4.50;;;8.50;95.30;;;;;;5133834;27;20447;-78
2023/12/31 00:33:38;;;;;;;7.65;4.90;;;8.50;95.20;;;;;;5116580;27;20376;-78
2023/12/31 00:36:04;;;;;;;8.40;6.15;;;8.50;95.10;;;;;;5134043;27;20070;-77
2023/12/31 00:38:30;;;;;;;8.35;4.60;;;8.50;95.20;;;;;;5134077;27;20047;-78
2023/12/31 00:40:56;;;;;;;7.63;5.13;;;8.40;95.10;;;;;;5117210;27;20039;-79
2023/12/31 00:43:21;;;;;;;7.18;4.43;;;8.40;95.20;;;;;;5117298;27;20070;-77
2023/12/31 00:45:47;;;;;;;6.55;4.63;;;8.40;95.40;;;;;;5116817;27;20471;-78
2023/12/31 00:48:13;;;;;;;5.72;4.40;;;8.40;95.30;;;;;;5116752;27;20093;-78
2023/12/31 00:50:38;;;;;;;6.07;3.80;;;8.40;95.30;;;;;;5116238;28;20465;-78
2023/12/31 00:53:04;;;;;;;7.53;4.03;;;8.40;95.30;;;;;;5132990;27;20453;-78
2023/12/31 00:55:30;;;;;;;5.95;4.75;;;8.40;95.20;;;;;;5116136;27;20038;-78
2023/12/31 00:57:55;;;;;;;6.53;4.10;;;8.40;95.10;;;;;;5116413;27;20118;-77
2023/12/31 01:00:21;;;;;;;8.52;4.55;;;8.40;95.00;;;;;;5133773;27;20050;-79
2023/12/31 01:02:47;;;;;;;6.80;4.30;;;8.30;95.00;;;;;;5133369;27;20546;-78
2023/12/31 01:05:12;;;;;;;6.50;4.18;;;8.30;95.10;;;;;;5099446;28;20035;-77
2023/12/31 01:07:38;;;;;;;6.20;4.28;;;8.30;95.10;;;;;;5116427;28;20134;-78
2023/12/31 01:10:04;;;;;;;8.93;4.30;;;8.30;95.10;;;;;;5082456;28;20081;-78
2023/12/31 01:12:31;;;;;;;6.53;4.35;;;8.30;95.20;;;;;;5133420;28;20105;-78
2023/12/31 01:14:56;;;;;;;6.78;4.15;;;8.20;95.20;;;;;;5133426;28;20035;-78
2023/12/31 01:17:22;;;;;;;7.07;4.55;;;8.30;95.10;;;;;;5133088;28;20498;-77
2023/12/31 01:19:47;;;;;;;7.80;4.20;;;8.20;95.20;;;;;;5132888;28;20092;-79
2023/12/31 01:22:13;;;;;;;6.80;4.60;;;8.30;95.40;;;;;;5081620;28;20035;-78
2023/12/31 01:24:39;;;;;;;6.78;3.70;;;8.30;95.30;;;;;;5115792;28;20039;-78
2023/12/31 01:27:04;;;;;;;5.65;4.15;;;8.20;95.20;;;;;;5133023;28;20088;-78
2023/12/31 01:29:30;;;;;;;5.00;3.53;;;8.20;95.20;;;;;;5099782;27;20120;-78
2023/12/31 01:31:56;;;;;;;6.20;3.85;;;8.20;95.20;;;;;;5119588;27;20097;-78
2023/12/31 01:34:21;;;;;;;7.00;3.90;;;8.30;95.20;;;;;;5119741;27;20440;-78
2023/12/31 01:36:47;;;;;;;6.30;4.00;;;8.20;95.20;;;;;;5136682;27;20074;-78
2023/12/31 01:39:13;;;;;;;3.65;3.20;;;8.20;95.40;;;;;;5119687;27;20046;-78
2023/12/31 01:41:38;;;;;;;7.32;4.47;;;8.20;95.30;;;;;;5137230;27;20555;-78
2023/12/31 01:44:06;;;;;;;7.88;3.88;;;8.20;95.20;;;;;;5137043;27;20418;-79
2023/12/31 01:46:32;;;;;;;5.97;3.17;;;8.20;95.20;;;;;;5136817;27;20562;-78
2023/12/31 01:49:00;;;;;;;5.15;3.83;;;8.20;95.10;;;;;;5136676;27;20047;-79
2023/12/31 01:51:30;;;;;;;4.40;3.45;;;8.20;95.20;;;;;;5103536;27;20428;-78
2023/12/31 01:53:59;;;;;;;4.60;3.00;;;8.20;95.10;;;;;;5119319;27;20120;-77
2023/12/31 01:56:26;;;;;;;4.25;2.60;;;8.20;95.10;;;;;;5136676;27;20039;-79
2023/12/31 01:58:52;;;;;;;5.18;2.97;;;8.20;95.00;;;;;;5136710;27;20061;-78
2023/12/31 02:01:18;;;;;;;4.00;2.63;;;8.20;95.00;;;;;;5085756;27;20490;-78
2023/12/31 02:03:44;;;;;;;5.15;2.92;;;8.20;95.00;;;;;;5136349;27;20130;-78
2023/12/31 02:06:10;;;;;;;4.15;2.90;;;8.10;94.90;;;;;;5119515;27;20054;-78
2023/12/31 02:08:36;;;;;;;4.97;3.05;;;8.20;94.80;;;;;;5119184;27;20495;-78
2023/12/31 02:11:03;;;;;;;4.25;2.53;;;8.10;94.80;;;;;;5136480;27;20356;-78
2023/12/31 02:13:29;;;;;;;4.07;2.60;;;8.20;94.80;;;;;;5119281;27;20039;-78
2023/12/31 02:15:55;;;;;;;4.25;2.67;;;8.10;94.80;;;;;;5102626;27;20035;-78
2023/12/31 02:18:20;;;;;;;5.15;2.75;;;8.10;94.70;;;;;;5098760;28;20514;-79
2023/12/31 02:20:46;;;;;;;6.05;2.80;;;8.10;94.80;;;;;;5117006;27;20434;-79
2023/12/31 02:23:12;;;;;;;6.20;2.80;;;8.10;94.80;;;;;;5100882;27;20043;-79
2023/12/31 02:25:39;;;;;;;3.58;2.30;;;8.10;94.70;;;;;;5136421;27;20054;-79
2023/12/31 02:28:08;;;;;;;3.80;1.92;;;8.00;94.70;;;;;;5119141;27;20441;-78
2023/12/31 02:30:34;;;;;;;3.70;2.25;;;8.10;94.70;;;;;;5135684;27;20488;-78
2023/12/31 02:33:00;;;;;;;3.20;2.13;;;8.00;94.60;;;;;;5118892;27;20035;-78
2023/12/31 02:35:25;;;;;;;4.07;2.20;;;8.00;94.50;;;;;;5135950;27;20087;-79
2023/12/31 02:37:51;;;;;;;4.97;2.70;;;8.00;94.60;;;;;;5101839;27;20078;-78
2023/12/31 02:40:18;;;;;;;5.28;2.63;;;8.00;94.50;;;;;;5134696;27;20376;-78
2023/12/31 02:42:44;;;;;;;3.83;2.83;;;8.00;94.50;;;;;;5117882;27;20047;-78
2023/12/31 02:45:10;;;;;;;4.90;2.38;;;8.00;94.50;;;;;;5135620;27;20054;-78
2023/12/31 02:47:35;;;;;;;4.00;2.10;;;8.00;94.40;;;;;;5135501;27;20399;-78
2023/12/31 02:50:01;;;;;;;4.03;1.95;;;8.00;94.30;;;;;;5118736;27;20138;-78
2023/12/31 02:52:27;;;;;;;3.55;1.90;;;8.00;94.30;;;;;;5118706;27;20191;-79
2023/12/31 02:54:52;;;;;;;3.17;2.17;;;8.00;94.20;;;;;;5135482;27;20035;-78
2023/12/31 02:57:19;;;;;;;3.70;2.40;;;8.10;94.10;;;;;;5118388;27;20050;-78
2023/12/31 02:59:44;;;;;;;3.92;2.42;;;8.00;94.00;;;;;;5135794;27;20046;-78
2023/12/31 03:02:10;;;;;;;4.53;2.15;;;8.00;93.90;;;;;;5101812;27;20391;-78
2023/12/31 03:04:40;;;;;;;4.05;2.15;;;8.00;93.90;;;;;;5101434;27;20070;-78
2023/12/31 03:07:06;;;;;;;5.43;2.10;;;8.00;93.90;;;;;;5135554;27;20047;-78
2023/12/31 03:09:32;;;;;;;3.67;2.20;;;8.00;93.90;;;;;;5101153;27;20046;-78
2023/12/31 03:11:57;;;;;;;3.55;2.00;;;8.00;93.90;;;;;;5101351;27;20039;-78
2023/12/31 03:14:23;;;;;;;4.97;2.10;;;8.00;93.90;;;;;;5100942;27;20039;-78
2023/12/31 03:16:49;;;;;;;3.63;2.38;;;8.00;93.80;;;;;;5118589;27;20423;-79
2023/12/31 03:19:15;;;;;;;3.20;1.98;;;7.90;93.80;;;;;;5100976;27;20112;-78
2023/12/31 03:21:41;;;;;;;3.22;1.98;;;7.90;93.80;;;;;;5117785;27;20046;-78
2023/12/31 03:24:08;;;;;;;4.03;1.80;;;7.90;93.90;;;;;;5135381;27;20091;-78
2023/12/31 03:26:34;;;;;;;3.63;1.85;;;7.90;93.90;;;;;;5118162;27;20042;-78
2023/12/31 03:28:59;;;;;;;3.85;1.75;;;7.90;93.80;;;;;;5117878;27;20054;-78
2023/12/31 03:31:25;;;;;;;3.25;1.80;;;7.90;93.80;;;;;;5134802;27;20079;-78
2023/12/31 03:33:51;;;;;;;3.83;1.60;;;7.90;93.80;;;;;;5100572;27;20035;-78
2023/12/31 03:36:16;;;;;;;4.28;1.92;;;7.90;93.70;;;;;;5117881;27;20031;-78
2023/12/31 03:38:42;;;;;;;2.35;1.70;;;8.00;93.70;;;;;;5117589;27;20122;-78
2023/12/31 03:41:08;;;;;;;4.55;2.65;;;7.90;93.70;;;;;;5118115;27;20046;-78
2023/12/31 03:43:33;;;;;;;2.70;1.85;;;7.90;93.70;;;;;;5134565;27;20031;-78
2023/12/31 03:45:59;;;;;;;4.70;2.20;;;8.00;93.70;;;;;;5134441;27;20039;-78
2023/12/31 03:48:25;;;;;;;2.85;1.55;;;8.00;93.60;;;;;;5117569;27;20058;-78
2023/12/31 03:50:52;;;;;;;2.83;1.40;;;8.00;93.60;;;;;;5134418;27;20050;-78
2023/12/31 03:53:18;;;;;;;1.98;1.52;;;8.00;93.50;;;;;;5117722;27;20348;-77
2023/12/31 03:55:43;;;;;;;4.65;1.65;;;8.00;93.50;;;;;;5117699;27;20095;-78
2023/12/31 03:58:09;;;;;;;3.92;1.60;;;8.00;93.40;;;;;;5117379;27;20038;-78
2023/12/31 04:00:35;;;;;;;2.45;1.42;;;8.00;93.40;;;;;;5117487;27;20035;-78
2023/12/31 04:03:01;;;;;;;3.17;1.58;;;8.00;93.30;;;;;;5116807;27;20043;-78
2023/12/31 04:05:27;;;;;;;2.47;1.88;;;8.10;93.20;;;;;;5117434;27;20483;-78
2023/12/31 04:07:53;;;;;;;2.00;1.30;;;8.00;93.10;;;;;;5100004;27;20092;-78
2023/12/31 04:10:18;;;;;;;2.75;1.83;;;8.10;93.20;;;;;;5134516;27;20039;-78
2023/12/31 04:12:44;;;;;;;3.47;1.67;;;8.10;93.10;;;;;;5134198;27;20130;-78
2023/12/31 04:15:10;;;;;;;3.20;1.67;;;8.10;92.90;;;;;;5116844;27;20395;-78
2023/12/31 04:17:35;;;;;;;2.85;1.40;;;8.10;93.00;;;;;;5116994;27;20074;-78
2023/12/31 04:20:02;;;;;;;3.47;1.67;;;8.10;92.80;;;;;;5117009;27;20144;-78
2023/12/31 04:22:28;;;;;;;2.60;1.30;;;8.10;92.70;;;;;;5133631;27;20081;-78
2023/12/31 04:24:54;;;;;;;3.13;1.83;;;8.10;92.50;;;;;;5133476;27;20043;-78
2023/12/31 04:27:19;;;;;;;3.67;1.95;;;8.10;92.60;;;;;;5117032;27;20413;-78
2023/12/31 04:29:46;;;;;;;3.50;1.50;;;8.10;92.50;;;;;;5116582;27;20167;-79
2023/12/31 04:32:11;;;;;;;2.97;1.42;;;8.10;92.60;;;;;;5117097;27;20042;-78
2023/12/31 04:34:38;;;;;;;2.83;1.58;;;8.10;92.40;;;;;;5133602;27;20051;-78
2023/12/31 04:37:04;;;;;;;3.53;1.60;;;8.10;92.40;;;;;;5116818;27;20035;-78
2023/12/31 04:39:30;;;;;;;3.28;1.77;;;8.10;92.20;;;;;;5099461;27;20050;-78
2023/12/31 04:41:55;;;;;;;2.60;1.80;;;8.10;92.20;;;;;;5099818;27;20074;-78
2023/12/31 04:44:21;;;;;;;3.47;2.13;;;8.10;92.20;;;;;;5133871;27;20126;-78
2023/12/31 04:46:47;;;;;;;3.20;1.88;;;8.10;92.00;;;;;;5133580;27;20074;-78
2023/12/31 04:49:14;;;;;;;3.58;2.22;;;8.10;92.10;;;;;;5116296;27;20075;-78
2023/12/31 04:51:40;;;;;;;4.85;1.60;;;8.20;91.90;;;;;;5133488;27;20122;-78
2023/12/31 04:54:06;;;;;;;3.65;2.03;;;8.20;91.90;;;;;;5116146;27;20126;-78
2023/12/31 04:56:32;;;;;;;3.60;2.30;;;8.20;91.90;;;;;;5133368;27;20042;-78
2023/12/31 04:58:58;;;;;;;4.00;2.00;;;8.10;91.90;;;;;;5116178;27;20394;-78
2023/12/31 05:01:33;;;;;;;4.97;2.10;;;8.10;91.70;;;;;;5116500;27;20035;-78
2023/12/31 05:04:01;;;;;;;3.15;1.92;;;8.20;91.80;;;;;;5132364;27;20054;-78
2023/12/31 05:06:26;;;;;;;4.43;2.40;;;8.20;91.60;;;;;;5116411;28;20049;-79
2023/12/31 05:08:52;;;;;;;3.03;1.92;;;8.20;91.40;;;;;;5099095;28;20039;-79
2023/12/31 05:11:18;;;;;;;3.75;2.25;;;8.20;91.30;;;;;;5099668;28;20039;-78
2023/12/31 05:13:44;;;;;;;4.78;2.45;;;8.30;91.30;;;;;;5133006;28;20059;-78
2023/12/31 05:16:15;;;;;;;4.25;2.10;;;8.30;90.90;;;;;;5133441;28;20039;-79
2023/12/31 05:18:46;;;;;;;3.80;2.40;;;8.30;91.10;;;;;;5116544;28;20031;-78
2023/12/31 05:21:12;;;;;;;5.13;2.20;;;8.20;90.80;;;;;;5133925;28;20406;-78
2023/12/31 05:23:38;;;;;;;2.35;2.10;;;8.30;91.00;;;;;;5115696;28;20605;-78
2023/12/31 05:26:04;;;;;;;3.60;2.10;;;8.20;90.90;;;;;;5115961;28;20031;-78
2023/12/31 05:28:30;;;;;;;3.60;2.17;;;8.20;90.80;;;;;;5116260;28;20168;-78
2023/12/31 05:30:56;;;;;;;2.33;1.80;;;8.20;90.80;;;;;;5115636;28;20138;-78
2023/12/31 05:33:21;;;;;;;3.05;1.80;;;8.20;90.80;;;;;;5132846;28;20043;-78
2023/12/31 05:35:47;;;;;;;2.92;1.92;;;8.30;90.70;;;;;;5132735;28;20070;-78
2023/12/31 05:38:13;;;;;;;2.75;1.80;;;8.20;90.60;;;;;;5115478;28;20540;-78
2023/12/31 05:40:39;;;;;;;3.80;1.83;;;8.20;90.40;;;;;;5132701;28;20096;-78
2023/12/31 05:43:05;;;;;;;3.65;2.10;;;8.30;90.70;;;;;;5132664;28;20079;-78
2023/12/31 05:45:30;;;;;;;2.97;1.77;;;8.30;90.50;;;;;;5099349;28;20039;-78
2023/12/31 05:47:56;;;;;;;3.97;2.30;;;8.20;90.50;;;;;;5133077;28;20046;-78
2023/12/31 05:50:22;;;;;;;4.00;2.15;;;8.30;90.40;;;;;;5132668;28;20487;-79
2023/12/31 05:52:47;;;;;;;2.75;1.90;;;8.30;90.10;;;;;;5132739;28;20088;-78
2023/12/31 05:55:13;;;;;;;3.13;2.00;;;8.30;90.20;;;;;;5115723;28;20080;-78
2023/12/31 05:57:40;;;;;;;4.60;2.20;;;8.30;90.10;;;;;;5132685;28;20046;-77
2023/12/31 06:00:07;;;;;;;3.50;1.50;;;8.30;89.70;;;;;;5132971;28;20168;-78
2023/12/31 06:02:33;;;;;;;3.85;1.52;;;8.40;89.80;;;;;;5132686;28;20047;-78
2023/12/31 06:04:58;;;;;;;4.07;1.77;;;8.40;89.60;;;;;;5098664;28;20062;-78
2023/12/31 06:07:24;;;;;;;2.47;1.80;;;8.40;89.60;;;;;;5116446;28;20112;-78
2023/12/31 06:09:50;;;;;;;3.30;2.20;;;8.40;89.50;;;;;;5132472;28;20042;-79
2023/12/31 06:12:16;;;;;;;3.75;1.88;;;8.40;89.60;;;;;;5115392;28;20035;-78
2023/12/31 06:14:41;;;;;;;3.22;1.83;;;8.40;89.10;;;;;;5132554;27;20035;-78
2023/12/31 06:17:07;;;;;;;3.65;2.17;;;8.50;89.10;;;;;;5119315;27;20035;-78
2023/12/31 06:19:33;;;;;;;3.10;1.70;;;8.40;89.10;;;;;;5119635;27;20112;-79
2023/12/31 06:21:59;;;;;;;5.28;2.30;;;8.40;89.10;;;;;;5136375;27;20514;-78
2023/12/31 06:24:25;;;;;;;2.35;1.67;;;8.40;89.20;;;;;;5135582;27;20047;-78
2023/12/31 06:26:51;;;;;;;2.13;1.85;;;8.50;89.00;;;;;;5119318;27;20121;-79
2023/12/31 06:29:17;;;;;;;2.67;1.92;;;8.50;88.90;;;;;;5136019;27;20058;-78
2023/12/31 06:31:43;;;;;;;3.72;2.50;;;8.50;88.70;;;;;;5136200;27;20039;-78
2023/12/31 06:34:08;;;;;;;3.63;2.33;;;8.50;88.70;;;;;;5135929;27;20064;-77
2023/12/31 06:36:34;;;;;;;2.80;2.15;;;8.50;88.90;;;;;;5101765;27;20118;-78
2023/12/31 06:39:00;;;;;;;4.75;2.03;;;8.60;88.80;;;;;;5136412;27;20050;-78
2023/12/31 06:41:26;;;;;;;4.90;2.38;;;8.60;88.40;;;;;;5118540;27;20031;-78
2023/12/31 06:43:52;;;;;;;5.88;2.38;;;8.60;88.30;;;;;;5135623;27;20130;-78
2023/12/31 06:46:17;;;;;;;5.10;2.53;;;8.60;88.40;;;;;;5135768;27;20088;-77
2023/12/31 06:48:43;;;;;;;5.63;2.65;;;8.60;88.10;;;;;;5135829;27;20040;-78
2023/12/31 06:51:09;;;;;;;3.47;2.28;;;8.60;88.30;;;;;;5135926;27;20086;-78
2023/12/31 06:53:34;;;;;;;3.63;2.10;;;8.60;88.30;;;;;;5135496;27;20042;-78
2023/12/31 06:56:07;;;;;;;4.63;2.55;;;8.60;88.50;;;;;;5118793;27;20042;-78
2023/12/31 06:58:35;;;;;;;7.18;2.70;;;8.60;88.40;;;;;;5135583;27;20494;-78
2023/12/31 07:01:01;;;;;;;4.05;3.20;;;8.50;88.40;;;;;;5118573;27;20035;-78
2023/12/31 07:03:27;;;;;;;4.63;3.10;;;8.50;88.60;;;;;;5135959;27;20475;-79
2023/12/31 07:05:53;;;;;;;4.13;3.03;;;8.50;88.60;;;;;;5118472;27;20088;-78
2023/12/31 07:08:18;;;;;;;7.40;3.67;;;8.50;88.70;;;;;;5118181;27;20115;-78
2023/12/31 07:10:44;;;;;;;5.10;4.03;;;8.50;88.80;;;;;;5117978;27;20047;-78
2023/12/31 07:13:09;;;;;;;4.47;3.83;;;8.50;88.80;;;;;;5101075;27;20082;-78
2023/12/31 07:15:35;;;;;;;7.45;3.58;;;8.50;89.00;;;;;;5118433;27;20031;-78
2023/12/31 07:18:02;;;;;;;5.40;4.20;;;8.40;89.00;;;;;;5135440;27;20060;-78
2023/12/31 07:20:28;;;;;;;7.65;4.10;;;8.40;89.10;;;;;;5135082;27;20181;-78
2023/12/31 07:22:54;;;;;;;6.15;4.07;;;8.40;89.20;;;;;;5135423;27;20121;-78
2023/12/31 07:25:21;;;;;;;8.32;4.38;;;8.40;89.20;;;;;;5134959;27;20491;-78
2023/12/31 07:27:47;;;;;;;5.55;3.40;;;8.40;89.30;;;;;;5117088;27;20051;-78
2023/12/31 07:30:13;;;;;;;5.10;3.58;;;8.40;89.30;;;;;;5134543;27;20048;-78
2023/12/31 07:32:39;;;;;;;7.75;3.75;;;8.40;89.20;;;;;;5100999;27;20079;-78
2023/12/31 07:35:05;;;;;;;4.70;3.20;;;8.50;89.20;;;;;;5117909;27;20043;-79
2023/12/31 07:37:31;;;;;;;6.05;3.78;;;8.50;89.20;;;;;;5118205;27;20087;-78
2023/12/31 07:40:00;;;;;;;4.03;3.00;;;8.50;89.20;;;;;;5117976;27;20444;-78
2023/12/31 07:42:27;;;;;;;3.80;2.90;;;8.50;89.20;;;;;;5134521;27;20544;-78
2023/12/31 07:44:53;;;;;;;4.13;2.97;;;8.50;89.20;;;;;;5117599;27;20039;-78
2023/12/31 07:47:19;;;;;;;4.57;3.10;;;8.50;89.30;;;;;;5134437;27;20084;-78
2023/12/31 07:49:45;;;;;;;4.22;3.20;;;8.50;89.10;;;;;;5117516;27;20089;-78
2023/12/31 07:52:10;;;;;;;3.90;3.05;;;8.50;89.20;;;;;;5117182;27;20036;-78
2023/12/31 07:54:36;;;;;;;5.45;3.58;;;8.60;89.10;;;;;;5134322;27;20161;-79
2023/12/31 07:57:02;;;;;;;4.95;3.08;;;8.60;89.00;;;;;;5134452;27;20092;-79
2023/12/31 07:59:27;;;;;;;5.40;3.30;;;8.60;89.10;;;;;;5133672;27;20499;-78
2023/12/31 08:01:53;;;;;;;4.28;3.60;;;8.60;89.20;;;;;;5133633;27;20054;-79
2023/12/31 08:04:19;;;;;;;3.90;3.47;;;8.60;89.10;;;;;;5114987;27;20043;-78
2023/12/31 08:06:44;;;;;;;4.93;3.10;;;8.60;89.10;;;;;;5132626;27;20435;-78
2023/12/31 08:09:11;;;;;;;5.72;3.25;;;8.60;89.10;;;;;;5116039;27;20135;-78
2023/12/31 08:11:37;;;;;;;7.43;5.07;;;8.60;89.10;;;;;;5116430;27;20035;-77
2023/12/31 08:14:03;;;;;;;5.63;3.95;;;8.60;89.00;;;;;;5116682;27;20457;-78
2023/12/31 08:16:29;;;;;;;4.47;3.78;;;8.60;88.90;;;;;;5116295;27;20076;-79
2023/12/31 08:18:55;;;;;;;6.82;4.40;;;8.60;89.00;;;;;;5099350;27;20043;-77
2023/12/31 08:21:20;;;;;;;5.15;3.85;;;8.60;89.00;;;;;;5082425;27;20035;-78
2023/12/31 08:23:46;;;;;;;9.90;3.58;;;8.60;89.00;;;;;;5133161;27;20043;-79
2023/12/31 08:26:13;;;;;;;5.22;3.78;;;8.60;89.00;;;;;;5099203;27;20444;-79
2023/12/31 08:28:39;;;;;;;4.60;3.67;;;8.70;88.90;;;;;;5116269;27;20406;-79
2023/12/31 08:31:05;;;;;;;4.82;3.47;;;8.60;89.00;;;;;;5115924;27;20127;-78
2023/12/31 08:33:31;;;;;;;6.30;3.55;;;8.70;89.10;;;;;;5133252;27;20493;-79
2023/12/31 08:35:56;;;;;;;5.13;3.63;;;8.60;89.00;;;;;;5098906;27;20125;-78
2023/12/31 08:38:22;;;;;;;4.50;3.10;;;8.70;89.00;;;;;;5098967;27;20398;-78
2023/12/31 08:40:48;;;;;;;4.70;3.65;;;8.70;89.00;;;;;;5133064;27;20043;-78
2023/12/31 08:43:16;;;;;;;5.38;3.53;;;8.70;89.00;;;;;;5133313;27;20038;-78
2023/12/31 08:45:43;;;;;;;4.88;3.15;;;8.70;89.00;;;;;;5116058;27;20525;-79
2023/12/31 08:48:10;;;;;;;4.35;2.60;;;8.70;88.90;;;;;;5115690;27;20043;-79
2023/12/31 08:50:36;;;;;;;3.90;3.08;;;8.80;88.80;;;;;;5115555;27;20051;-78
2023/12/31 08:53:02;;;;;;;5.05;3.42;;;8.80;88.80;;;;;;5133126;27;20097;-78
2023/12/31 08:55:28;;;;;;;3.72;2.92;;;8.90;88.80;;;;;;5115756;27;20053;-78
2023/12/31 08:57:53;;;;;;;4.95;3.92;;;8.90;88.70;;;;;;5115782;27;20039;-78
2023/12/31 09:00:20;;;;;;;3.67;2.80;;;8.90;88.70;;;;;;5116506;27;20043;-78
2023/12/31 09:02:46;;;;;;;4.32;2.92;;;8.90;88.60;;;;;;5116259;28;20061;-78
2023/12/31 09:05:12;;;;;;;7.88;5.28;;;8.90;88.70;;;;;;5133371;27;20372;-79
2023/12/31 09:07:39;;;;;;;4.85;3.67;;;9.00;88.70;;;;;;5133174;27;20092;-78
2023/12/31 09:10:06;;;;;;;5.40;3.67;;;9.00;88.70;;;;;;5132807;28;20089;-79
2023/12/31 09:12:32;;;;;;;5.90;3.78;;;9.00;88.90;;;;;;5108519;28;20046;-80
2023/12/31 09:14:58;;;;;;;6.45;3.90;;;8.90;89.00;;;;;;5126021;28;20043;-79
2023/12/31 09:17:24;;;;;;;5.32;3.65;;;8.90;89.10;;;;;;5125133;27;20502;-80
2023/12/31 09:19:50;;;;;;;5.78;4.13;;;8.90;89.10;;;;;;5106628;28;20067;-79
2023/12/31 09:22:15;;;;;;;5.65;4.20;;;8.90;89.20;;;;;;5107172;27;20049;-80
2023/12/31 09:24:41;;;;;;;5.45;4.10;;;8.90;89.30;;;;;;5125615;28;20039;-80
2023/12/31 09:27:07;;;;;;;8.27;7.38;;;8.90;89.60;;;;;;5126554;28;20046;-78
2023/12/31 09:29:36;;;;;;;6.70;3.95;;;8.90;90.00;;;;;;5125398;27;20099;-79
2023/12/31 09:32:03;;;;;;;5.80;3.50;;;8.90;90.00;;;;;;5124799;28;20047;-77
2023/12/31 09:34:29;;;;;;;5.28;3.85;;;8.80;90.10;;;;;;5125197;28;20138;-78
2023/12/31 09:36:54;;;;;;;5.90;5.20;;;8.80;90.20;;;;;;5107881;28;20142;-77
2023/12/31 09:39:20;;;;;;;8.85;5.70;;;8.80;90.80;;;;;;5091722;28;20046;-77
2023/12/31 09:41:49;;;;;;;4.68;3.70;;;8.80;90.80;;;;;;5108490;28;20559;-78
2023/12/31 09:44:18;;;;;;;4.75;4.05;;;8.80;90.90;;;;;;5107826;28;20136;-80
2023/12/31 09:46:54;;;;;;;4.95;3.72;;;8.70;91.20;;;;;;5107006;28;20455;-78
2023/12/31 09:49:21;;;;;;;4.55;4.07;;;8.70;91.40;;;;;;5124701;27;20379;-78
2023/12/31 09:51:47;;;;;;;5.53;4.22;;;8.70;91.30;;;;;;5111074;27;20067;-80
2023/12/31 09:54:13;;;;;;;5.35;4.00;;;8.80;91.50;;;;;;5076590;27;20431;-77
2023/12/31 09:56:40;;;;;;;6.40;3.95;;;8.70;91.50;;;;;;5128642;27;20408;-80
2023/12/31 09:59:07;;;;;;;6.55;3.85;;;8.70;91.30;;;;;;5130286;27;20055;-78
2023/12/31 10:01:35;;;;;;;7.38;3.80;;;8.80;91.40;;;;;;5128401;27;20111;-79
2023/12/31 10:04:02;;;;;;;7.25;3.55;;;8.80;91.50;;;;;;5110237;27;20100;-79
2023/12/31 10:06:29;;;;;;;5.65;3.67;;;8.80;91.70;;;;;;5128407;27;20086;-81
2023/12/31 10:08:56;;;;;;;4.68;3.60;;;8.90;91.50;;;;;;5127921;27;20072;-79
2023/12/31 10:11:22;;;;;;;5.63;4.20;;;8.90;91.50;;;;;;5127310;27;20055;-79
2023/12/31 10:13:47;;;;;;;5.78;4.05;;;8.90;91.60;;;;;;5109484;27;20035;-80
2023/12/31 10:16:14;;;;;;;5.13;3.72;;;9.00;91.60;;;;;;5106190;27;20059;-79
2023/12/31 10:18:40;;;;;;;5.60;4.07;;;9.00;91.60;;;;;;5111306;27;20051;-82
2023/12/31 10:21:08;;;;;;;5.97;3.58;;;9.00;91.50;;;;;;5106365;27;20572;-80
2023/12/31 10:23:34;;;;;;;5.05;4.03;;;8.90;91.50;;;;;;5110451;27;20398;-79
2023/12/31 10:26:00;;;;;;;6.43;4.68;;;8.90;91.50;;;;;;5110639;27;20498;-79
2023/12/31 10:28:27;;;;;;;6.40;4.97;;;9.00;91.50;;;;;;5093885;27;20075;-79
2023/12/31 10:30:53;;;;;;;6.15;4.63;;;9.00;91.40;;;;;;5093188;27;20095;-80
2023/12/31 10:33:28;;;;;;;8.10;4.65;;;9.00;91.40;;;;;;5109446;27;20074;-79
2023/12/31 10:36:04;;;;;;;6.60;3.85;;;9.10;91.00;;;;;;5127200;27;20062;-79
2023/12/31 10:38:43;;;;;;;6.50;4.60;;;9.10;91.00;;;;;;5110686;27;20085;-79
2023/12/31 10:41:10;;;;;;;7.40;5.78;;;9.10;91.00;;;;;;5110942;27;20504;-79
2023/12/31 10:43:39;;;;;;;10.18;6.15;;;9.10;91.00;;;;;;5126345;27;20818;-79
2023/12/31 10:46:08;;;;;;;8.00;7.00;;;9.10;91.10;;;;;;5111685;27;20035;-79
2023/12/31 10:48:38;;;;;;;8.25;5.35;;;9.10;91.30;;;;;;5127785;27;20103;-80
2023/12/31 10:51:08;;;;;;;6.32;4.40;;;9.10;91.50;;;;;;5110435;27;20051;-79
2023/12/31 10:53:39;;;;;;;5.53;2.63;;;9.10;91.90;;;;;;5109784;27;21121;-78
2023/12/31 10:56:06;;;;;;;4.40;2.42;;;9.00;90.80;;;;;;5127974;27;20050;-78
2023/12/31 10:58:32;;;;;;;2.28;1.30;;;8.70;90.50;;;;;;5112991;27;20043;-80
2023/12/31 11:00:59;;;;;;;5.15;1.80;;;8.60;90.50;;;;;;5133698;27;20104;-79
2023/12/31 11:03:30;;;;;;;3.35;1.50;;;8.50;90.80;;;;;;5125013;27;20113;-79
2023/12/31 11:05:58;;;;;;;6.25;2.15;;;8.40;90.90;;;;;;5119144;27;20038;-78
2023/12/31 11:08:25;;;;;;;3.70;1.40;;;8.30;91.20;;;;;;5140048;27;20034;-79
2023/12/31 11:10:50;;;;;;;5.57;1.25;;;8.20;91.40;;;;;;5138131;27;20035;-78
2023/12/31 11:13:18;;;;;;;3.38;1.50;;;8.20;91.40;;;;;;5120993;27;20039;-78
2023/12/31 11:15:45;;;;;;;5.93;2.45;;;8.10;91.40;;;;;;5155348;27;20050;-78
2023/12/31 11:18:32;;;;;;;8.30;3.08;;;8.10;91.40;;;;;;5121084;27;20039;-77
2023/12/31 11:21:07;;;;;;;6.35;3.42;;;8.10;91.70;;;;;;5145510;27;20069;-79
2023/12/31 11:24:04;;;;;;;7.68;2.03;;;8.10;91.90;;;;;;5138425;27;20046;-78
2023/12/31 11:26:29;;;;;;;4.28;2.63;;;8.00;92.10;;;;;;5141177;27;20054;-78
2023/12/31 11:28:55;;;;;;;3.20;1.85;;;8.10;92.30;;;;;;5137930;27;20035;-78
2023/12/31 11:31:21;;;;;;;8.25;4.75;;;8.00;92.50;;;;;;5121586;27;20125;-79
2023/12/31 11:33:49;;;;;;;9.70;7.15;;;8.00;92.40;;;;;;5139593;27;20030;-79
2023/12/31 11:36:16;;;;;;;4.38;2.38;;;8.00;92.30;;;;;;5133195;27;20510;-78
2023/12/31 11:38:58;;;;;;;4.72;2.63;;;8.00;92.50;;;;;;5099782;28;20040;-78
2023/12/31 11:41:31;;;;;;;10.05;5.32;;;8.00;92.60;;;;;;5117295;27;20034;-78
2023/12/31 11:43:57;;;;;;;33.15;17.30;;;8.10;92.50;;;;;;5134846;27;20391;-79
2023/12/31 11:46:33;;;;;;;23.13;13.63;;;8.10;92.40;;;;;;5100432;27;20042;-79
2023/12/31 11:48:59;;;;;;;23.83;12.85;;;8.20;92.70;;;;;;5117437;27;20134;-79
2023/12/31 11:51:29;;;;;;;7.50;5.22;;;8.20;92.70;;;;;;5117255;27;20188;-79
2023/12/31 11:53:57;;;;;;;8.20;3.30;;;8.30;92.80;;;;;;5133764;27;20084;-79
2023/12/31 11:56:27;;;;;;;5.45;3.17;;;8.40;92.70;;;;;;5121481;27;20035;-80
2023/12/31 11:58:54;;;;;;;7.43;4.65;;;8.40;92.70;;;;;;5117051;27;20531;-79
2023/12/31 12:01:20;;;;;;;7.93;5.20;;;8.50;92.60;;;;;;5134562;27;20039;-79
2023/12/31 12:03:45;;;;;;;6.40;3.47;;;8.50;92.50;;;;;;5116870;27;20037;-79
2023/12/31 12:06:11;;;;;;;2.65;2.08;;;8.50;92.40;;;;;;5099985;27;20440;-79
2023/12/31 12:08:38;;;;;;;4.28;2.05;;;8.50;92.30;;;;;;5133537;27;20041;-79
2023/12/31 12:11:04;;;;;;;9.23;5.15;;;8.60;92.40;;;;;;5100003;27;20039;-78
2023/12/31 12:13:30;;;;;;;8.95;7.40;;;8.60;92.20;;;;;;5133647;27;20047;-80
2023/12/31 12:15:57;;;;;;;5.03;3.38;;;8.60;92.30;;;;;;5098800;27;20031;-80
2023/12/31 12:18:24;;;;;;;6.97;6.28;;;8.60;92.10;;;;;;5132504;27;20035;-80
2023/12/31 12:20:50;;;;;;;13.85;10.20;;;8.60;92.00;;;;;;5116314;27;20137;-80
2023/12/31 12:23:21;;;;;;;7.50;6.47;;;8.60;91.90;;;;;;5116186;27;20039;-80
2023/12/31 12:25:47;;;;;;;6.93;5.80;;;8.60;92.00;;;;;;5116070;27;20478;-80
2023/12/31 12:28:14;;;;;;;7.53;6.20;;;8.60;92.00;;;;;;5112699;27;20118;-81
2023/12/31 12:30:43;;;;;;;4.78;3.30;;;8.60;91.90;;;;;;5115684;27;20051;-80
2023/12/31 12:33:11;;;;;;;5.55;4.88;;;8.70;91.90;;;;;;5090830;27;20105;-79
2023/12/31 12:35:39;;;;;;;11.07;9.27;;;8.60;92.00;;;;;;5127496;27;20555;-80
2023/12/31 12:38:06;;;;;;;9.45;7.47;;;8.60;92.00;;;;;;5117856;27;20122;-77
2023/12/31 12:40:32;;;;;;;11.40;7.72;;;8.60;92.40;;;;;;5133129;27;20102;-78
2023/12/31 12:43:01;;;;;;;8.70;7.28;;;8.50;92.70;;;;;;5115998;27;20502;-77
2023/12/31 12:45:27;;;;;;;12.60;10.20;;;8.50;93.10;;;;;;5102392;28;20043;-78
2023/12/31 12:47:52;;;;;;;8.25;6.25;;;8.50;93.10;;;;;;5112605;28;20035;-77
2023/12/31 12:50:18;;;;;;;8.98;7.85;;;8.40;93.60;;;;;;5078457;28;20047;-79
2023/12/31 12:52:44;;;;;;;9.15;7.20;;;8.40;93.50;;;;;;5112491;28;20042;-77
2023/12/31 12:55:10;;;;;;;5.35;3.10;;;8.40;94.00;;;;;;5095156;28;20403;-78